createdAt,value
2023-03-12T00:01:12.212Z,-0.03
2023-03-12T00:03:16.583Z,-0.32
2023-03-12T00:05:19.529Z,-0.78
2023-03-12T00:07:22.289Z,-0.90
2023-03-12T00:09:25.117Z,-0.71
2023-03-12T00:11:27.844Z,0.08
2023-03-12T00:13:30.564Z,-0.53
2023-03-12T00:15:33.570Z,-0.34
2023-03-12T00:17:36.675Z,-0.28
2023-03-12T00:19:40.779Z,-0.15
2023-03-12T00:21:43.545Z,-0.09
2023-03-12T00:23:48.144Z,-0.60
2023-03-12T00:25:50.940Z,-0.01
2023-03-12T00:27:53.768Z,0.02
2023-03-12T00:29:56.588Z,-0.53
2023-03-12T00:31:59.361Z,-0.20
2023-03-12T00:34:03.290Z,-0.97
2023-03-12T00:36:08.984Z,0.02
2023-03-12T00:38:11.764Z,-0.03
2023-03-12T00:40:15.061Z,0.06
2023-03-12T00:42:17.952Z,0.09
2023-03-12T00:44:20.796Z,0.10
2023-03-12T00:46:23.755Z,0.22
2023-03-12T00:48:26.515Z,0.36
2023-03-12T00:50:29.309Z,0.40
2023-03-12T00:52:33.472Z,0.42
2023-03-12T00:54:36.219Z,0.13
2023-03-12T00:56:39.211Z,0.45
2023-03-12T00:58:42.776Z,0.50
2023-03-12T01:00:45.669Z,0.55
2023-03-12T01:02:48.496Z,0.58
2023-03-12T01:04:51.262Z,0.63
2023-03-12T01:06:54.072Z,0.41
2023-03-12T01:08:58.180Z,0.64
2023-03-12T01:11:01.044Z,0.66
2023-03-12T01:13:03.895Z,0.61
2023-03-12T01:15:07.818Z,0.61
2023-03-12T01:17:10.618Z,0.57
2023-03-12T01:19:13.383Z,0.50
2023-03-12T01:21:16.161Z,0.10
2023-03-12T01:23:25.011Z,0.21
2023-03-12T01:25:30.222Z,0.56
2023-03-12T01:27:33.076Z,0.34
2023-03-12T01:29:35.923Z,0.63
2023-03-12T01:31:38.723Z,0.16
2023-03-12T01:33:41.950Z,0.11
2023-03-12T01:35:45.427Z,0.34
2023-03-12T01:37:48.273Z,0.47
2023-03-12T01:39:51.260Z,0.56
2023-03-12T01:41:55.492Z,0.68
2023-03-12T01:43:58.328Z,0.53
2023-03-12T01:46:17.454Z,0.74
2023-03-12T01:48:21.357Z,0.80
2023-03-12T01:50:24.431Z,0.80
2023-03-12T01:52:30.329Z,0.82
2023-03-12T01:54:39.639Z,0.88
2023-03-12T01:56:43.746Z,0.92
2023-03-12T01:58:53.902Z,1.04
2023-03-12T02:00:56.815Z,0.96
2023-03-12T02:03:03.283Z,0.94
2023-03-12T02:05:15.807Z,0.99
2023-03-12T02:07:18.944Z,1.14
2023-03-12T02:09:23.130Z,1.19
2023-03-12T02:11:27.245Z,1.20
2023-03-12T02:13:30.256Z,1.20
2023-03-12T02:15:35.786Z,0.31
2023-03-12T02:17:40.385Z,1.33
2023-03-12T02:19:51.054Z,1.40
2023-03-12T02:21:54.104Z,1.45
2023-03-12T02:24:06.661Z,1.48
2023-03-12T02:26:13.005Z,0.80
2023-03-12T02:28:19.496Z,1.46
2023-03-12T02:30:23.606Z,1.32
2023-03-12T02:32:29.686Z,1.47
2023-03-12T02:34:32.506Z,1.54
2023-03-12T02:36:35.290Z,1.13
2023-03-12T02:38:42.347Z,1.49
2023-03-12T02:40:48.694Z,1.61
2023-03-12T02:42:53.872Z,1.59
2023-03-12T02:44:56.761Z,1.63
2023-03-12T02:47:01.321Z,1.69
2023-03-12T02:49:04.634Z,1.46
2023-03-12T02:51:07.486Z,-0.52
2023-03-12T02:53:10.307Z,1.74
2023-03-12T02:55:13.116Z,1.52
2023-03-12T02:57:16.167Z,1.65
2023-03-12T02:59:21.879Z,1.82
2023-03-12T03:01:28.450Z,1.81
2023-03-12T03:03:31.615Z,1.51
2023-03-12T03:05:36.741Z,1.79
2023-03-12T03:07:40.158Z,1.79
2023-03-12T03:09:42.985Z,1.79
2023-03-12T03:11:45.776Z,1.75
2023-03-12T03:13:49.006Z,1.80
2023-03-12T03:15:53.178Z,1.35
2023-03-12T03:17:55.965Z,1.28
2023-03-12T03:19:59.039Z,1.44
2023-03-12T03:22:02.036Z,1.57
2023-03-12T03:24:06.753Z,1.67
2023-03-12T03:26:09.744Z,1.73
2023-03-12T03:28:12.579Z,1.74
2023-03-12T03:30:16.729Z,1.46
2023-03-12T03:32:23.381Z,1.48
2023-03-12T03:34:26.534Z,1.42
2023-03-12T03:36:29.404Z,1.48
2023-03-12T03:38:39.905Z,1.64
2023-03-12T03:40:42.787Z,1.45
2023-03-12T03:42:45.902Z,0.50
2023-03-12T03:44:48.768Z,1.24
2023-03-12T03:46:51.626Z,1.02
2023-03-12T03:48:55.776Z,1.24
2023-03-12T03:51:01.228Z,1.27
2023-03-12T03:53:06.138Z,1.04
2023-03-12T03:55:09.668Z,1.25
2023-03-12T03:57:12.698Z,1.39
2023-03-12T03:59:16.009Z,1.50
2023-03-12T04:01:19.663Z,1.35
2023-03-12T04:03:23.503Z,1.70
2023-03-12T04:05:28.032Z,1.61
2023-03-12T04:07:30.868Z,1.21
2023-03-12T04:09:34.079Z,1.87
2023-03-12T04:11:36.947Z,1.71
2023-03-12T04:13:41.434Z,1.72
2023-03-12T04:15:48.325Z,1.79
2023-03-12T04:17:51.513Z,1.76
2023-03-12T04:19:55.526Z,1.83
2023-03-12T04:22:00.029Z,1.86
2023-03-12T04:24:02.814Z,2.01
2023-03-12T04:26:09.512Z,2.04
2023-03-12T04:28:12.753Z,1.76
2023-03-12T04:30:16.205Z,1.83
2023-03-12T04:32:20.286Z,2.10
2023-03-12T04:34:23.690Z,2.04
2023-03-12T04:36:28.588Z,2.20
2023-03-12T04:38:33.225Z,1.97
2023-03-12T04:40:36.181Z,2.22
2023-03-12T04:42:39.107Z,2.13
2023-03-12T04:44:42.889Z,2.31
2023-03-12T04:46:45.864Z,2.34
2023-03-12T04:48:52.309Z,2.13
2023-03-12T04:50:55.304Z,2.18
2023-03-12T04:52:58.195Z,2.14
2023-03-12T04:55:02.730Z,2.36
2023-03-12T04:57:05.597Z,2.24
2023-03-12T04:59:08.748Z,1.91
2023-03-12T05:01:24.435Z,2.30
2023-03-12T05:03:27.294Z,2.54
2023-03-12T05:05:30.391Z,2.55
2023-03-12T05:07:33.976Z,2.12
2023-03-12T05:09:37.042Z,2.57
2023-03-12T05:11:41.188Z,2.54
2023-03-12T05:13:46.920Z,2.50
2023-03-12T05:15:50.746Z,2.26
2023-03-12T05:17:54.975Z,2.44
2023-03-12T05:19:58.053Z,2.39
2023-03-12T05:22:01.491Z,2.34
2023-03-12T05:24:06.509Z,2.33
2023-03-12T05:26:09.615Z,2.29
2023-03-12T05:28:13.826Z,2.15
2023-03-12T05:30:16.907Z,2.30
2023-03-12T05:32:19.865Z,1.54
2023-03-12T05:34:23.037Z,2.04
2023-03-12T05:36:26.198Z,2.12
2023-03-12T05:38:29.031Z,2.06
2023-03-12T05:40:31.919Z,2.01
2023-03-12T05:42:36.058Z,2.30
2023-03-12T05:44:40.788Z,2.39
2023-03-12T05:46:45.417Z,2.24
2023-03-12T05:48:48.238Z,2.12
2023-03-12T05:50:51.915Z,2.30
2023-03-12T05:52:54.664Z,2.13
2023-03-12T05:54:57.558Z,2.31
2023-03-12T05:57:00.647Z,2.22
2023-03-12T05:59:04.526Z,2.22
2023-03-12T06:01:14.537Z,2.30
2023-03-12T06:03:17.368Z,2.48
2023-03-12T06:05:20.178Z,2.46
2023-03-12T06:07:23.003Z,2.68
2023-03-12T06:09:25.793Z,2.77
2023-03-12T06:11:32.226Z,2.77
2023-03-12T06:13:35.694Z,2.69
2023-03-12T06:15:38.539Z,2.67
2023-03-12T06:17:44.666Z,2.51
2023-03-12T06:19:47.714Z,2.86
2023-03-12T06:21:50.529Z,2.87
2023-03-12T06:23:53.838Z,2.95
2023-03-12T06:26:01.245Z,2.96
2023-03-12T06:28:04.786Z,2.99
2023-03-12T06:30:08.835Z,2.99
2023-03-12T06:32:11.634Z,2.48
2023-03-12T06:34:16.830Z,3.04
2023-03-12T06:36:19.685Z,2.98
2023-03-12T06:38:22.654Z,3.14
2023-03-12T06:40:25.445Z,3.52
2023-03-12T06:42:28.277Z,3.86
2023-03-12T06:44:31.464Z,3.51
2023-03-12T06:46:34.337Z,3.27
2023-03-12T06:48:37.278Z,3.22
2023-03-12T06:50:41.534Z,3.05
2023-03-12T06:52:44.311Z,2.98
2023-03-12T06:54:47.038Z,2.94
2023-03-12T06:56:49.765Z,2.89
2023-03-12T06:58:52.508Z,2.42
2023-03-12T07:00:55.722Z,2.83
2023-03-12T07:02:58.573Z,2.85
2023-03-12T07:05:01.466Z,2.09
2023-03-12T07:07:05.820Z,2.84
2023-03-12T07:09:08.971Z,2.88
2023-03-12T07:11:12.055Z,0.54
2023-03-12T07:13:15.515Z,2.95
2023-03-12T07:15:18.319Z,2.98
2023-03-12T07:17:22.207Z,3.00
2023-03-12T07:19:24.934Z,3.03
2023-03-12T07:21:27.703Z,3.07
2023-03-12T07:23:31.860Z,3.11
2023-03-12T07:25:37.261Z,3.20
2023-03-12T07:27:40.136Z,2.08
2023-03-12T07:29:42.942Z,3.31
2023-03-12T07:31:45.850Z,3.35
2023-03-12T07:33:48.719Z,2.17
2023-03-12T07:35:52.118Z,3.31
2023-03-12T07:37:55.005Z,3.22
2023-03-12T07:39:59.169Z,2.22
2023-03-12T07:42:02.345Z,3.15
2023-03-12T07:44:06.736Z,3.13
2023-03-12T07:46:09.641Z,3.25
2023-03-12T07:48:12.580Z,3.07
2023-03-12T07:50:16.247Z,3.42
2023-03-12T07:52:20.232Z,2.98
2023-03-12T07:54:25.567Z,3.54
2023-03-12T07:56:29.900Z,3.70
2023-03-12T07:58:33.714Z,3.62
2023-03-12T08:00:36.507Z,3.93
2023-03-12T08:02:40.367Z,3.98
2023-03-12T08:04:43.151Z,4.08
2023-03-12T08:06:45.939Z,4.17
2023-03-12T08:08:49.161Z,4.04
2023-03-12T08:10:51.982Z,5.48
2023-03-12T08:12:56.131Z,5.75
2023-03-12T08:14:59.143Z,5.49
2023-03-12T08:17:02.692Z,5.28
2023-03-12T08:19:05.472Z,5.12
2023-03-12T08:21:08.260Z,5.04
2023-03-12T08:23:11.354Z,5.03
2023-03-12T08:25:14.258Z,4.91
2023-03-12T08:27:17.227Z,4.95
2023-03-12T08:29:21.555Z,4.96
2023-03-12T08:31:24.683Z,4.92
2023-03-12T08:33:28.036Z,5.02
2023-03-12T08:35:30.849Z,5.02
2023-03-12T08:37:33.957Z,4.38
2023-03-12T08:39:36.925Z,5.19
2023-03-12T08:41:39.667Z,5.23
2023-03-12T08:43:42.559Z,5.34
2023-03-12T08:45:46.906Z,4.89
2023-03-12T08:47:50.301Z,5.50
2023-03-12T08:49:53.101Z,5.12
2023-03-12T08:51:55.851Z,5.70
2023-03-12T08:53:58.658Z,5.78
2023-03-12T08:56:01.458Z,5.85
2023-03-12T08:58:04.257Z,6.03
2023-03-12T09:00:14.832Z,6.10
2023-03-12T09:02:19.014Z,6.53
2023-03-12T09:04:21.960Z,6.23
2023-03-12T09:06:26.046Z,6.71
2023-03-12T09:08:28.830Z,6.85
2023-03-12T09:10:31.734Z,7.07
2023-03-12T09:12:34.609Z,6.69
2023-03-12T09:15:05.267Z,7.42
2023-03-12T09:17:00.202Z,7.51
2023-03-12T09:19:04.880Z,7.57
2023-03-12T09:21:07.773Z,7.60
2023-03-12T09:23:10.526Z,7.60
2023-03-12T09:25:14.070Z,7.67
2023-03-12T09:27:17.335Z,7.79
2023-03-12T09:29:20.132Z,7.88
2023-03-12T09:31:23.079Z,7.96
2023-03-12T09:33:25.820Z,8.06
2023-03-12T09:35:31.496Z,8.15
2023-03-12T09:37:34.850Z,8.21
2023-03-12T09:39:37.591Z,8.02
2023-03-12T09:41:42.172Z,8.04
2023-03-12T09:43:52.191Z,6.17
2023-03-12T09:45:56.383Z,7.60
2023-03-12T09:48:02.110Z,7.74
2023-03-12T09:50:16.143Z,7.70
2023-03-12T09:52:26.754Z,7.81
2023-03-12T09:54:38.993Z,7.75
2023-03-12T09:56:42.316Z,7.52
2023-03-12T09:58:48.147Z,7.95
2023-03-12T10:00:53.787Z,8.11
2023-03-12T10:03:11.106Z,7.78
2023-03-12T10:05:20.509Z,7.68
2023-03-12T10:07:32.311Z,8.06
2023-03-12T10:10:02.608Z,8.70
2023-03-12T10:12:15.763Z,8.52
2023-03-12T10:14:30.083Z,8.50
2023-03-12T10:16:42.781Z,8.47
2023-03-12T10:18:59.335Z,8.54
2023-03-12T10:21:23.155Z,8.86
2023-03-12T10:23:40.349Z,8.85
2023-03-12T10:25:48.073Z,8.89
2023-03-12T10:27:51.434Z,9.06
2023-03-12T10:29:54.948Z,8.26
2023-03-12T10:32:01.766Z,8.78
2023-03-12T10:34:16.089Z,8.50
2023-03-12T10:36:21.623Z,8.40
2023-03-12T10:38:30.585Z,9.05
2023-03-12T10:40:37.301Z,8.41
2023-03-12T10:42:40.493Z,8.86
2023-03-12T10:44:43.309Z,9.37
2023-03-12T10:47:00.563Z,8.71
2023-03-12T10:49:26.775Z,10.36
2023-03-12T10:51:29.583Z,9.83
2023-03-12T10:53:34.700Z,9.45
2023-03-12T10:55:39.208Z,9.61
2023-03-12T10:57:43.107Z,9.55
2023-03-12T10:59:48.632Z,9.97
2023-03-12T11:01:53.515Z,10.22
2023-03-12T11:04:15.290Z,9.85
2023-03-12T11:06:23.267Z,10.13
2023-03-12T11:08:28.179Z,9.60
2023-03-12T11:10:44.659Z,9.97
2023-03-12T11:12:57.548Z,9.47
2023-03-12T11:15:00.440Z,9.25
2023-03-12T11:17:21.284Z,9.63
2023-03-12T11:19:32.171Z,9.68
2023-03-12T11:21:38.153Z,10.18
2023-03-12T11:23:43.900Z,10.53
2023-03-12T11:25:54.920Z,11.47
2023-03-12T11:28:01.654Z,10.68
2023-03-12T11:30:06.195Z,10.85
2023-03-12T11:32:17.905Z,10.93
2023-03-12T11:34:24.517Z,10.17
2023-03-12T11:36:44.036Z,10.15
2023-03-12T11:38:55.012Z,9.63
2023-03-12T11:41:09.487Z,9.49
2023-03-12T11:43:42.142Z,9.91
2023-03-12T11:45:55.392Z,9.86
2023-03-12T11:48:11.865Z,11.10
2023-03-12T11:50:23.180Z,11.00
2023-03-12T11:52:36.906Z,10.95
2023-03-12T11:54:57.880Z,11.08
2023-03-12T11:57:07.701Z,10.77
2023-03-12T11:59:23.909Z,10.20
2023-03-12T12:01:34.441Z,9.86
2023-03-12T12:03:48.186Z,10.94
2023-03-12T12:06:00.569Z,10.94
2023-03-12T12:08:41.769Z,11.37
2023-03-12T12:10:54.192Z,10.95
2023-03-12T12:13:07.396Z,10.60
2023-03-12T12:15:19.690Z,10.51
2023-03-12T12:17:33.072Z,10.23
2023-03-12T12:19:51.698Z,10.51
2023-03-12T12:22:14.896Z,11.11
2023-03-12T12:24:38.366Z,10.77
2023-03-12T12:26:49.386Z,11.09
2023-03-12T12:29:22.221Z,7.57
2023-03-12T12:31:35.330Z,10.86
2023-03-12T12:33:54.405Z,11.02
2023-03-12T12:35:58.207Z,10.55
2023-03-12T12:38:08.695Z,10.34
2023-03-12T12:40:21.226Z,9.62
2023-03-12T12:42:30.085Z,10.85
2023-03-12T12:44:38.433Z,10.87
2023-03-12T12:46:46.358Z,10.72
2023-03-12T12:48:54.483Z,10.59
2023-03-12T12:51:00.045Z,11.34
2023-03-12T12:53:13.412Z,11.18
2023-03-12T12:55:20.540Z,11.18
2023-03-12T12:57:30.205Z,11.43
2023-03-12T12:59:39.826Z,11.15
2023-03-12T13:01:43.674Z,10.68
2023-03-12T13:03:48.238Z,11.02
2023-03-12T13:05:59.341Z,10.54
2023-03-12T13:08:02.149Z,10.53
2023-03-12T13:10:29.437Z,10.03
2023-03-12T13:12:34.810Z,10.23
2023-03-12T13:14:41.134Z,9.82
2023-03-12T13:16:45.391Z,10.75
2023-03-12T13:18:58.239Z,10.62
2023-03-12T13:21:23.396Z,10.39
2023-03-12T13:23:35.431Z,10.50
2023-03-12T13:25:49.446Z,10.71
2023-03-12T13:27:59.540Z,10.34
2023-03-12T13:30:48.599Z,10.53
2023-03-12T13:33:12.773Z,10.45
2023-03-12T13:35:32.740Z,10.59
2023-03-12T13:37:59.844Z,10.25
2023-03-12T13:40:10.538Z,10.88
2023-03-12T13:42:38.670Z,10.85
2023-03-12T13:44:41.451Z,10.80
2023-03-12T13:46:47.392Z,10.90
2023-03-12T13:48:50.933Z,10.65
2023-03-12T13:50:56.826Z,10.35
2023-03-12T13:53:05.187Z,9.26
2023-03-12T13:55:20.889Z,9.90
2023-03-12T13:57:31.838Z,10.49
2023-03-12T13:59:34.773Z,10.33
2023-03-12T14:01:42.042Z,10.54
2023-03-12T14:03:49.864Z,11.07
2023-03-12T14:05:56.065Z,11.02
2023-03-12T14:08:12.610Z,11.36
2023-03-12T14:10:27.050Z,11.44
2023-03-12T14:12:38.018Z,12.50
2023-03-12T14:15:01.340Z,12.89
2023-03-12T14:17:05.891Z,13.41
2023-03-12T14:19:14.479Z,13.80
2023-03-12T14:21:19.030Z,14.50
2023-03-12T14:23:23.800Z,14.00
2023-03-12T14:25:34.865Z,13.32
2023-03-12T14:27:38.646Z,13.71
2023-03-12T14:29:44.748Z,13.30
2023-03-12T14:31:49.044Z,14.20
2023-03-12T14:33:58.305Z,13.24
2023-03-12T14:36:07.767Z,13.24
2023-03-12T14:38:17.174Z,13.82
2023-03-12T14:40:24.521Z,14.22
2023-03-12T14:42:31.330Z,14.43
2023-03-12T14:44:36.586Z,13.67
2023-03-12T14:46:47.570Z,14.13
2023-03-12T14:48:52.303Z,15.20
2023-03-12T14:50:57.257Z,14.63
2023-03-12T14:53:14.030Z,13.92
2023-03-12T14:55:19.881Z,15.07
2023-03-12T14:57:24.575Z,15.22
2023-03-12T14:59:31.103Z,15.92
2023-03-12T15:01:39.391Z,16.70
2023-03-12T15:03:46.348Z,15.97
2023-03-12T15:05:50.139Z,15.53
2023-03-12T15:07:57.557Z,14.89
2023-03-12T15:10:07.104Z,14.47
2023-03-12T15:12:20.702Z,14.11
2023-03-12T15:14:25.350Z,13.32
2023-03-12T15:16:28.589Z,12.13
2023-03-12T15:18:33.472Z,12.23
2023-03-12T15:20:37.026Z,13.02
2023-03-12T15:22:41.357Z,12.55
2023-03-12T15:24:44.249Z,13.12
2023-03-12T15:26:48.880Z,13.24
2023-03-12T15:28:57.680Z,12.97
2023-03-12T15:31:10.033Z,13.08
2023-03-12T15:33:24.476Z,12.49
2023-03-12T15:35:27.625Z,12.17
2023-03-12T15:37:35.282Z,11.77
2023-03-12T15:39:39.381Z,11.81
2023-03-12T15:41:45.357Z,12.17
2023-03-12T15:43:53.907Z,11.78
2023-03-12T15:46:01.664Z,11.10
2023-03-12T15:48:13.463Z,11.62
2023-03-12T15:50:21.702Z,11.67
2023-03-12T15:52:31.568Z,11.16
2023-03-12T15:54:40.370Z,11.03
2023-03-12T15:56:43.175Z,11.50
2023-03-12T15:58:46.028Z,11.83
2023-03-12T16:00:50.182Z,12.03
2023-03-12T16:02:55.484Z,11.79
2023-03-12T16:04:58.236Z,11.85
2023-03-12T16:07:01.910Z,11.49
2023-03-12T16:09:06.148Z,11.53
2023-03-12T16:11:16.946Z,11.69
2023-03-12T16:13:22.047Z,11.75
2023-03-12T16:15:30.671Z,11.80
2023-03-12T16:17:34.766Z,11.69
2023-03-12T16:19:37.532Z,11.87
2023-03-12T16:21:40.517Z,11.41
2023-03-12T16:23:43.342Z,11.57
2023-03-12T16:25:48.565Z,11.76
2023-03-12T16:27:53.608Z,11.73
2023-03-12T16:29:56.686Z,11.61
2023-03-12T16:31:59.712Z,11.51
2023-03-12T16:34:03.904Z,11.53
2023-03-12T16:36:13.442Z,11.32
2023-03-12T16:38:16.249Z,11.24
2023-03-12T16:40:32.536Z,11.47
2023-03-12T16:42:36.610Z,11.41
2023-03-12T16:44:41.927Z,11.36
2023-03-12T16:46:45.854Z,11.03
2023-03-12T16:48:52.144Z,11.32
2023-03-12T16:50:58.013Z,11.34
2023-03-12T16:53:00.903Z,11.43
2023-03-12T16:55:04.075Z,9.08
2023-03-12T16:57:07.403Z,11.04
2023-03-12T16:59:18.638Z,11.10
2023-03-12T17:01:24.110Z,11.15
2023-03-12T17:03:35.481Z,10.58
2023-03-12T17:05:38.646Z,11.04
2023-03-12T17:07:43.113Z,10.59
2023-03-12T17:09:45.915Z,10.62
2023-03-12T17:11:52.679Z,10.77
2023-03-12T17:13:59.670Z,10.75
2023-03-12T17:16:02.618Z,10.43
2023-03-12T17:18:05.466Z,10.67
2023-03-12T17:20:10.613Z,10.66
2023-03-12T17:22:13.525Z,10.31
2023-03-12T17:24:17.912Z,10.15
2023-03-12T17:26:20.685Z,10.48
2023-03-12T17:28:23.510Z,10.26
2023-03-12T17:30:27.198Z,10.34
2023-03-12T17:32:31.562Z,10.34
2023-03-12T17:34:34.366Z,9.67
2023-03-12T17:36:38.078Z,10.13
2023-03-12T17:38:40.873Z,10.10
2023-03-12T17:40:45.468Z,9.89
2023-03-12T17:42:48.288Z,10.03
2023-03-12T17:44:51.048Z,9.98
2023-03-12T17:46:59.603Z,9.91
2023-03-12T17:49:02.761Z,9.84
2023-03-12T17:51:09.998Z,9.77
2023-03-12T17:53:13.475Z,9.64
2023-03-12T17:55:16.290Z,9.37
2023-03-12T17:57:20.436Z,8.46
2023-03-12T17:59:23.331Z,9.57
2023-03-12T18:01:26.125Z,9.61
2023-03-12T18:03:29.030Z,9.61
2023-03-12T18:05:31.894Z,9.54
2023-03-12T18:07:34.680Z,9.55
2023-03-12T18:09:37.489Z,9.48
2023-03-12T18:11:40.348Z,9.03
2023-03-12T18:13:44.756Z,9.11
2023-03-12T18:15:53.031Z,9.20
2023-03-12T18:17:56.817Z,9.24
2023-03-12T18:19:59.644Z,9.03
2023-03-12T18:22:02.472Z,8.70
2023-03-12T18:24:14.058Z,9.27
2023-03-12T18:26:17.659Z,9.08
2023-03-12T18:28:20.890Z,8.94
2023-03-12T18:30:25.072Z,9.14
2023-03-12T18:32:27.928Z,9.04
2023-03-12T18:34:30.802Z,9.01
2023-03-12T18:36:33.717Z,9.00
2023-03-12T18:38:36.519Z,8.97
2023-03-12T18:40:39.541Z,8.99
2023-03-12T18:42:44.585Z,8.93
2023-03-12T18:44:47.410Z,8.90
2023-03-12T18:46:51.936Z,8.88
2023-03-12T18:48:54.933Z,8.84
2023-03-12T18:50:58.261Z,8.46
2023-03-12T18:53:01.022Z,8.75
2023-03-12T18:55:04.347Z,8.78
2023-03-12T18:57:07.158Z,8.68
2023-03-12T18:59:10.717Z,8.65
2023-03-12T19:01:13.910Z,8.30
2023-03-12T19:03:18.090Z,8.53
2023-03-12T19:05:21.018Z,8.47
2023-03-12T19:07:24.188Z,8.44
2023-03-12T19:09:26.935Z,8.44
2023-03-12T19:11:29.717Z,8.45
2023-03-12T19:13:32.634Z,8.44
2023-03-12T19:15:38.730Z,8.44
2023-03-12T19:17:41.559Z,8.42
2023-03-12T19:19:45.685Z,8.43
2023-03-12T19:21:48.546Z,8.24
2023-03-12T19:23:52.124Z,8.40
2023-03-12T19:25:54.939Z,8.32
2023-03-12T19:27:57.719Z,8.10
2023-03-12T19:30:00.526Z,8.33
2023-03-12T19:32:03.882Z,8.30
2023-03-12T19:34:06.676Z,8.29
2023-03-12T19:36:11.351Z,8.25
2023-03-12T19:38:14.589Z,8.21
2023-03-12T19:40:17.681Z,8.23
2023-03-12T19:42:20.383Z,7.86
2023-03-12T19:44:23.125Z,8.23
2023-03-12T19:46:25.861Z,8.22
2023-03-12T19:48:28.558Z,8.09
2023-03-12T19:50:31.408Z,7.97
2023-03-12T19:52:35.574Z,8.19
2023-03-12T19:54:38.458Z,8.01
2023-03-12T19:56:41.216Z,8.12
2023-03-12T19:58:43.901Z,7.67
2023-03-12T20:00:46.798Z,8.15
2023-03-12T20:02:49.771Z,7.78
2023-03-12T20:04:52.645Z,8.03
2023-03-12T20:06:55.447Z,8.15
2023-03-12T20:09:00.042Z,8.16
2023-03-12T20:11:03.706Z,8.09
2023-03-12T20:13:07.324Z,8.09
2023-03-12T20:15:10.690Z,8.06
2023-03-12T20:17:13.470Z,7.92
2023-03-12T20:19:16.250Z,8.03
2023-03-12T20:21:19.177Z,7.76
2023-03-12T20:23:21.981Z,8.03
2023-03-12T20:25:26.052Z,8.03
2023-03-12T20:27:28.791Z,8.02
2023-03-12T20:29:31.537Z,7.99
2023-03-12T20:31:35.021Z,7.73
2023-03-12T20:33:38.073Z,7.65
2023-03-12T20:35:40.916Z,7.85
2023-03-12T20:37:43.740Z,7.33
2023-03-12T20:39:46.503Z,7.50
2023-03-12T20:41:51.239Z,7.47
2023-03-12T20:43:56.478Z,7.95
2023-03-12T20:46:00.330Z,7.68
2023-03-12T20:48:03.533Z,7.67
2023-03-12T20:50:06.755Z,7.86
2023-03-12T20:52:09.523Z,7.84
2023-03-12T20:54:12.851Z,7.81
2023-03-12T20:56:15.637Z,7.80
2023-03-12T20:58:19.777Z,7.77
2023-03-12T21:00:23.290Z,7.91
2023-03-12T21:02:26.085Z,7.97
2023-03-12T21:04:28.843Z,7.87
2023-03-12T21:06:31.705Z,8.08
2023-03-12T21:08:35.132Z,8.20
2023-03-12T21:10:38.377Z,8.31
2023-03-12T21:12:41.371Z,8.09
2023-03-12T21:14:45.564Z,8.25
2023-03-12T21:16:48.433Z,8.18
2023-03-12T21:18:55.649Z,8.50
2023-03-12T21:21:03.262Z,8.53
2023-03-12T21:23:06.199Z,8.60
2023-03-12T21:25:10.033Z,8.67
2023-03-12T21:27:13.025Z,8.73
2023-03-12T21:29:15.781Z,8.61
2023-03-12T21:31:20.000Z,8.78
2023-03-12T21:33:23.230Z,8.52
2023-03-12T21:35:27.702Z,8.83
2023-03-12T21:37:30.565Z,8.84
2023-03-12T21:39:33.541Z,8.91
2023-03-12T21:41:37.509Z,8.92
2023-03-12T21:43:40.433Z,8.76
2023-03-12T21:45:47.213Z,8.73
2023-03-12T21:47:51.313Z,8.99
2023-03-12T21:49:54.062Z,8.98
2023-03-12T21:51:57.477Z,8.89
2023-03-12T21:54:00.426Z,8.74
2023-03-12T21:56:05.155Z,8.63
2023-03-12T21:58:07.928Z,9.10
2023-03-12T22:00:13.962Z,9.13
2023-03-12T22:02:17.112Z,9.07
2023-03-12T22:04:21.967Z,9.01
2023-03-12T22:06:25.236Z,9.24
2023-03-12T22:08:28.075Z,8.99
2023-03-12T22:10:31.014Z,8.98
2023-03-12T22:12:34.059Z,9.13
2023-03-12T22:14:36.864Z,8.80
2023-03-12T22:16:39.712Z,8.93
2023-03-12T22:18:44.043Z,8.78
2023-03-12T22:20:53.055Z,9.15
2023-03-12T22:22:55.858Z,9.21
2023-03-12T22:24:58.643Z,9.13
2023-03-12T22:27:03.309Z,9.16
2023-03-12T22:29:07.013Z,9.23
2023-03-12T22:31:10.742Z,9.28
2023-03-12T22:33:14.202Z,9.31
2023-03-12T22:35:17.092Z,9.39
2023-03-12T22:37:21.205Z,9.35
2023-03-12T22:39:24.140Z,9.39
2023-03-12T22:41:29.535Z,8.99
2023-03-12T22:43:32.330Z,9.39
2023-03-12T22:45:35.582Z,8.56
2023-03-12T22:47:38.537Z,9.42
2023-03-12T22:49:41.343Z,9.40
2023-03-12T22:51:44.114Z,9.30
2023-03-12T22:53:48.294Z,9.16
2023-03-12T22:55:58.441Z,9.37
2023-03-12T22:58:01.196Z,9.42
2023-03-12T23:00:07.092Z,9.46
2023-03-12T23:02:09.837Z,9.33
2023-03-12T23:04:12.681Z,9.35
2023-03-12T23:06:17.349Z,9.28
2023-03-12T23:08:20.180Z,9.26
2023-03-12T23:10:24.266Z,9.34
2023-03-12T23:12:27.210Z,9.38
2023-03-12T23:14:29.994Z,9.41
2023-03-12T23:16:32.758Z,9.36
2023-03-12T23:18:36.045Z,9.38
2023-03-12T23:20:38.896Z,9.40
2023-03-12T23:22:41.626Z,9.22
2023-03-12T23:24:44.387Z,9.48
2023-03-12T23:26:48.590Z,9.49
2023-03-12T23:28:53.480Z,9.02
2023-03-12T23:30:56.871Z,9.47
2023-03-12T23:32:59.666Z,9.47
2023-03-12T23:35:02.464Z,9.28
2023-03-12T23:37:05.542Z,9.38
2023-03-12T23:39:08.276Z,9.45
2023-03-12T23:41:13.823Z,9.51
2023-03-12T23:43:18.616Z,9.25
2023-03-12T23:45:21.373Z,9.57
2023-03-12T23:47:24.352Z,9.47
2023-03-12T23:49:27.203Z,9.54
2023-03-12T23:51:32.035Z,9.58
2023-03-12T23:53:35.945Z,8.70
2023-03-12T23:55:38.659Z,9.29
2023-03-12T23:57:41.389Z,9.34
2023-03-12T23:59:45.564Z,9.37
